Impacts METAR Board INFO
IDs:

KIAD - Washington/Dulles In, VA, US

Updated at: 0537 UTC 18 Jan 2018
Potential Impact None Slight Moderate High
Time17/17Z 17/18Z 17/19Z 17/20Z 17/21Z 17/22Z 17/23Z 18/00Z 18/01Z 18/02Z 18/03Z 18/04Z 18/05Z
VIS10 10 10 10 10 10 10 10 10 10 10 10 10
CIG90 80 70 100 100 -- -- -- 65 70 75 80 --
CoverBKNOVCBKNBKNBKNSCTFEWFEWOVCOVCOVCOVCSCT
FltCatVFRVFRVFRVFRVFRVFRVFRVFRVFRVFRVFRVFRVFR
WX--------------------------
WDir340340340320330350320330330330330320330
WSpd17 14 11 14 10 11 8 11 10 14 13 16 10
WGst22 22 21 -- -- -- -- -- -- 20 -- 20 --
Raw hourly METARs
KIAD 171652Z 34017G22KT 10SM FEW070 BKN090 M06/M13 A3039 RMK AO2 SLP294 T10561128
KIAD 171752Z 34014G22KT 10SM OVC080 M06/M13 A3036 RMK AO2 SLP283 60000 T10561133 11050 21056 58021
KIAD 171852Z 34011G21KT 10SM BKN070 BKN090 M06/M13 A3035 RMK AO2 SLP279 T10561133
KIAD 171952Z 32014KT 10SM BKN100 BKN200 M06/M13 A3034 RMK AO2 SLP278 T10561133
KIAD 172052Z 33010KT 10SM FEW050 BKN100 BKN200 M05/M14 A3033 RMK AO2 SLP275 T10501139 56009 $
KIAD 172152Z 35011KT 10SM FEW100 SCT200 M05/M14 A3032 RMK AO2 SLP270 T10501139
KIAD 172252Z 32008KT 10SM FEW060 FEW100 M06/M14 A3033 RMK AO2 SLP276 T10611139
KIAD 172352Z 33011KT 10SM FEW100 M06/M14 A3032 RMK AO2 SLP271 T10561139 11044 21061 56005
KIAD 180052Z 33010KT 10SM BKN065 OVC140 M06/M13 A3032 RMK AO2 SLP270 T10561133
KIAD 180152Z 33014G20KT 10SM BKN070 OVC110 M06/M14 A3031 RMK AO2 SLP269 T10611139
KIAD 180252Z 33013KT 10SM OVC075 M07/M14 A3031 RMK AO2 SLP269 T10671139 55002
KIAD 180352Z 32016G20KT 10SM OVC080 M08/M15 A3030 RMK AO2 SLP266 BINOVC T10781150
KIAD 180452Z 33010KT 10SM SCT090 M08/M14 A3029 RMK AO2 SLP260 T10831144 400001083